createdAt,value
2022-10-12T00:02:12.984Z,13104
2022-10-12T00:07:27.911Z,13102
2022-10-12T00:12:39.014Z,13078
2022-10-12T00:17:50.776Z,13100
2022-10-12T00:23:02.864Z,13069
2022-10-12T00:28:14.722Z,13050
2022-10-12T00:33:26.778Z,13101
2022-10-12T00:38:38.611Z,13056
2022-10-12T00:43:58.397Z,13075
2022-10-12T00:49:13.039Z,13093
2022-10-12T00:54:24.784Z,13105
2022-10-12T00:59:36.544Z,13092
2022-10-12T01:04:48.468Z,13057
2022-10-12T01:10:00.332Z,13105
2022-10-12T01:15:12.128Z,13056
2022-10-12T01:20:23.888Z,13074
2022-10-12T01:25:35.596Z,13043
2022-10-12T01:30:47.841Z,13103
2022-10-12T01:35:59.938Z,12982
2022-10-12T01:41:11.793Z,13109
2022-10-12T01:46:23.558Z,13051
2022-10-12T01:51:35.168Z,13099
2022-10-12T01:56:46.932Z,13075
2022-10-12T02:01:58.692Z,13078
2022-10-12T02:07:10.396Z,13036
2022-10-12T02:12:22.150Z,13069
2022-10-12T02:17:34.306Z,13103
2022-10-12T02:22:46.649Z,13091
2022-10-12T02:27:58.352Z,13023
2022-10-12T02:33:10.196Z,13157
2022-10-12T02:38:21.940Z,13075
2022-10-12T02:43:33.626Z,13059
2022-10-12T02:48:45.382Z,13047
2022-10-12T02:53:57.028Z,13050
2022-10-12T02:59:09.039Z,13088
2022-10-12T03:04:20.852Z,13102
2022-10-12T03:09:32.431Z,13109
2022-10-12T03:14:44.385Z,13092
2022-10-12T03:19:56.244Z,13084
2022-10-12T03:25:08.050Z,13067
2022-10-12T03:30:19.874Z,13078
2022-10-12T03:35:31.729Z,13061
2022-10-12T03:40:43.334Z,13078
2022-10-12T03:45:54.997Z,13067
2022-10-12T03:51:06.756Z,13078
2022-10-12T03:56:18.273Z,13009
2022-10-12T04:01:30.206Z,13162
2022-10-12T04:06:42.156Z,13137
2022-10-12T04:11:54.131Z,13132
2022-10-12T04:17:06.018Z,13091
2022-10-12T04:22:17.961Z,13024
2022-10-12T04:27:29.789Z,13116
2022-10-12T04:32:41.683Z,13124
2022-10-12T04:37:53.518Z,13145
2022-10-12T04:43:05.459Z,13112
2022-10-12T04:48:17.183Z,13119
2022-10-12T04:53:28.958Z,12976
2022-10-12T04:58:40.788Z,13171
2022-10-12T05:03:52.613Z,13083
2022-10-12T05:09:04.261Z,12964
2022-10-12T05:14:15.911Z,13172
2022-10-12T05:19:27.693Z,13135
2022-10-12T05:24:39.549Z,13125
2022-10-12T05:29:51.309Z,13123
2022-10-12T05:35:03.114Z,13120
2022-10-12T05:40:14.980Z,13109
2022-10-12T05:45:26.910Z,13117
2022-10-12T05:50:38.786Z,13169
2022-10-12T05:55:50.510Z,13145
2022-10-12T06:01:02.312Z,13100
2022-10-12T06:06:14.239Z,13128
2022-10-12T06:11:26.132Z,13123
2022-10-12T06:16:38.024Z,13153
2022-10-12T06:21:50.257Z,13083
2022-10-12T06:27:02.142Z,13137
2022-10-12T06:32:14.033Z,13172
2022-10-12T06:37:50.229Z,13188
2022-10-12T06:42:58.983Z,13182
2022-10-12T06:48:17.652Z,13162
2022-10-12T06:53:34.211Z,13152
2022-10-12T06:58:46.063Z,13155
2022-10-12T07:04:01.185Z,13174
2022-10-12T07:09:11.967Z,13171
2022-10-12T07:14:24.035Z,13170
2022-10-12T07:19:35.883Z,13216
2022-10-12T07:24:47.918Z,13148
2022-10-12T07:29:59.874Z,13151
2022-10-12T07:35:11.834Z,13173
2022-10-12T07:40:23.878Z,13198
2022-10-12T07:45:36.334Z,13211
2022-10-12T07:50:48.273Z,13207
2022-10-12T07:56:00.249Z,13215
2022-10-12T08:01:12.074Z,13231
2022-10-12T08:06:24.343Z,13126
2022-10-12T08:11:36.428Z,13224
2022-10-12T08:16:48.705Z,13262
2022-10-12T08:22:00.663Z,13194
2022-10-12T08:27:12.895Z,13219
2022-10-12T08:32:25.064Z,13237
2022-10-12T08:37:37.976Z,13163
2022-10-12T08:42:51.210Z,13229
2022-10-12T08:48:03.253Z,13223
2022-10-12T08:53:15.583Z,13226
2022-10-12T08:58:27.942Z,13216
2022-10-12T09:03:40.229Z,13234
2022-10-12T09:08:52.510Z,13246
2022-10-12T09:14:04.814Z,13225
2022-10-12T09:19:17.129Z,13241
2022-10-12T09:24:29.310Z,13247
2022-10-12T09:29:41.766Z,13256
2022-10-12T09:34:54.061Z,13204
2022-10-12T09:40:06.260Z,13206
2022-10-12T09:45:18.935Z,13188
2022-10-12T09:50:31.259Z,13158
2022-10-12T09:55:43.552Z,13174
2022-10-12T10:00:55.857Z,13221
2022-10-12T10:06:08.139Z,13201
2022-10-12T10:11:20.294Z,13164
2022-10-12T10:16:32.745Z,13245
2022-10-12T10:21:44.960Z,13230
2022-10-12T10:26:57.259Z,13213
2022-10-12T10:32:09.796Z,13171
2022-10-12T10:37:21.994Z,13140
2022-10-12T10:42:34.365Z,13179
2022-10-12T10:47:46.573Z,13174
2022-10-12T10:52:59.049Z,13112
2022-10-12T10:58:11.264Z,13306
2022-10-12T11:03:23.848Z,13192
2022-10-12T11:08:36.924Z,13589
2022-10-12T11:13:51.183Z,14356
2022-10-12T11:19:05.846Z,13849
2022-10-12T11:24:19.910Z,13794
2022-10-12T11:29:33.381Z,13169
2022-10-12T11:45:08.138Z,12985
2022-10-12T11:50:20.555Z,13183
2022-10-12T12:00:43.300Z,13210
2022-10-12T12:11:05.754Z,12912
2022-10-12T12:21:28.171Z,13060
2022-10-12T12:26:40.816Z,12998
2022-10-12T12:42:12.401Z,12912
2022-10-12T12:47:46.255Z,13032
2022-10-12T12:52:55.206Z,13004
2022-10-12T12:58:07.523Z,12949
2022-10-12T13:03:19.616Z,12912
2022-10-12T13:08:31.611Z,13075
2022-10-12T13:13:43.824Z,13074
2022-10-12T13:24:05.523Z,13001
2022-10-12T13:29:17.677Z,13060
2022-10-12T13:34:30.022Z,12910
2022-10-12T13:44:52.316Z,12911
2022-10-12T13:50:04.502Z,12926
2022-10-12T14:00:27.233Z,12971
2022-10-12T14:05:39.578Z,13044
2022-10-12T14:16:01.846Z,13058
2022-10-12T14:21:13.947Z,12948
2022-10-12T14:26:26.160Z,13078
2022-10-12T14:31:38.660Z,13082
2022-10-12T14:36:50.833Z,13014
2022-10-12T14:42:03.001Z,12970
2022-10-12T14:47:15.248Z,12969
2022-10-12T14:52:27.190Z,12979
2022-10-12T15:02:49.650Z,13079
2022-10-12T15:08:01.924Z,13033
2022-10-12T15:13:14.071Z,13036
2022-10-12T15:18:26.372Z,13042
2022-10-12T15:23:38.265Z,12999
2022-10-12T15:28:50.533Z,13025
2022-10-12T15:34:02.761Z,12891
2022-10-12T15:39:14.785Z,13051
2022-10-12T15:44:26.962Z,13031
2022-10-12T15:49:39.129Z,12971
2022-10-12T15:54:51.072Z,12962
2022-10-12T16:00:03.049Z,13012
2022-10-12T16:05:15.018Z,13011
2022-10-12T16:10:27.191Z,12969
2022-10-12T16:15:39.401Z,12989
2022-10-12T16:20:54.402Z,13013
2022-10-12T16:26:05.548Z,12983
2022-10-12T16:31:17.572Z,12920
2022-10-12T16:36:29.739Z,13068
2022-10-12T16:41:41.757Z,13046
2022-10-12T16:46:53.756Z,13066
2022-10-12T16:52:05.815Z,13030
2022-10-12T16:57:17.863Z,13016
2022-10-12T17:02:29.977Z,13032
2022-10-12T17:07:41.933Z,12981
2022-10-12T17:12:54.124Z,13122
2022-10-12T17:18:06.258Z,12998
2022-10-12T17:23:18.585Z,13119
2022-10-12T17:28:30.973Z,13073
2022-10-12T17:33:43.216Z,13081
2022-10-12T17:38:55.460Z,13065
2022-10-12T17:44:07.617Z,12891
2022-10-12T17:49:25.147Z,13093
2022-10-12T17:54:39.797Z,13059
2022-10-12T17:59:51.976Z,13057
2022-10-12T18:05:04.109Z,12942
2022-10-12T18:10:16.413Z,13109
2022-10-12T18:15:28.517Z,13073
2022-10-12T18:20:40.575Z,12912
2022-10-12T18:25:52.707Z,13070
2022-10-12T18:31:04.728Z,12940
2022-10-12T18:36:16.867Z,13103
2022-10-12T18:41:47.525Z,12975
2022-10-12T18:46:56.301Z,13102
2022-10-12T18:52:08.363Z,13084
2022-10-12T18:57:20.867Z,13057
2022-10-12T19:02:33.515Z,12949
2022-10-12T19:07:52.727Z,13094
2022-10-12T19:13:08.632Z,13076
2022-10-12T19:18:28.350Z,13041
2022-10-12T19:23:44.935Z,13073
2022-10-12T19:28:57.218Z,13054
2022-10-12T19:34:09.338Z,13100
2022-10-12T19:39:22.754Z,13050
2022-10-12T19:44:39.739Z,13072
2022-10-12T19:49:51.843Z,13060
2022-10-12T19:55:04.095Z,13064
2022-10-12T20:00:16.133Z,13066
2022-10-12T20:05:28.425Z,13051
2022-10-12T20:10:40.371Z,13065
2022-10-12T20:15:52.427Z,13062
2022-10-12T20:21:04.534Z,13055
2022-10-12T20:26:26.574Z,13062
2022-10-12T20:31:39.900Z,12972
2022-10-12T20:36:52.111Z,13141
2022-10-12T20:42:04.252Z,13101
2022-10-12T20:47:16.498Z,13054
2022-10-12T20:52:29.005Z,12985
2022-10-12T20:57:41.037Z,13096
2022-10-12T21:02:53.454Z,13086
2022-10-12T21:08:05.463Z,13109
2022-10-12T21:13:17.345Z,13121
2022-10-12T21:18:37.739Z,13066
2022-10-12T21:23:48.336Z,13076
2022-10-12T21:29:00.316Z,13044
2022-10-12T21:34:12.443Z,13051
2022-10-12T21:39:24.601Z,13102
2022-10-12T21:44:36.615Z,13045
2022-10-12T21:49:48.714Z,13070
2022-10-12T21:55:00.840Z,13087
2022-10-12T22:00:12.746Z,13082
2022-10-12T22:05:24.780Z,13059
2022-10-12T22:10:36.900Z,13075
2022-10-12T22:15:48.905Z,13064
2022-10-12T22:21:00.854Z,13072
2022-10-12T22:26:12.940Z,13099
2022-10-12T22:31:25.082Z,13046
2022-10-12T22:36:37.209Z,12974
2022-10-12T22:41:49.068Z,13133
2022-10-12T22:47:01.065Z,13046
2022-10-12T22:52:13.148Z,13147
2022-10-12T22:57:25.188Z,13077
2022-10-12T23:02:37.244Z,13073
2022-10-12T23:07:49.077Z,13029
2022-10-12T23:13:01.304Z,13101
2022-10-12T23:18:13.275Z,13126
2022-10-12T23:23:25.334Z,13083
2022-10-12T23:28:37.428Z,12990
2022-10-12T23:33:49.436Z,13096
2022-10-12T23:39:01.541Z,13091
2022-10-12T23:44:13.941Z,13132
2022-10-12T23:49:25.879Z,13074
2022-10-12T23:54:37.965Z,13078
2022-10-12T23:59:49.943Z,13050
